Terminal Aerodrome Forecast
Issued by NWS Wilmington, OH

Current Version | Previous Version | Graphics & Text | Print | Product List | Glossary On
Versions: 1 2 3 4 5 6 7 8 9 10 11 12 13 14 15 16 17 18 19 20 21 22 23
000
FTUS41 KILN 190357 AAC
TAFILN
TAF AMD
KILN 190357Z 1904/1924 22010KT P6SM OVC015
     FM190700 25008KT 5SM BR OVC015
     FM190900 26006KT 2SM BR OVC008
     FM191500 27006KT P6SM BKN015
     FM191800 25005KT P6SM SCT025=

USA.gov is the U.S. government's official web portal to all federal, state and local government web resources and services.